CFG4WH EDDM-LGSA
Flight info
| Callsign | CFG4WH |
|---|---|
| Flight time | 2h 16m |
| Altitude | 35000 |
| Route | VAVOR3Q VAVOR M867 RADIZ DCT GIMIX DCT SABAD DCT NERRA DCT PETAK DCT PINDO UL607 ATV UP169 MANOK UL612 RUSOS |
| Aircraft | A320/M-SDE3FGHIJ1LORVWXYZ/S |
Departure
| Time | 2026-05-08 17:29 |
|---|---|
| Airport | Munich Airport (EDDM) |
Arrival
| Time | 2026-05-08 19:45 |
|---|---|
| Airport | Chania International Airport (LGSA) |
| Time | Latitude | Longitude | Altitude | Speed | Heading |
|---|---|---|---|---|---|
| 2026-05-08 16:47 | 48.34948 | 11.78374 | 1486 ft | 0 kts | 83° |
| 2026-05-08 17:03 | 48.34946 | 11.78341 | 1475 ft | 4 kts | 85° |
| 2026-05-08 17:04 | 48.34944 | 11.78301 | 1476 ft | 4 kts | 90° |
| 2026-05-08 17:04 | 48.34946 | 11.78266 | 1481 ft | 2 kts | 98° |
| 2026-05-08 17:04 | 48.34946 | 11.78238 | 1480 ft | 4 kts | 30° |
| 2026-05-08 17:04 | 48.34924 | 11.78235 | 1485 ft | 4 kts | 353° |
| 2026-05-08 17:05 | 48.34917 | 11.78236 | 1485 ft | 0 kts | 353° |
| 2026-05-08 17:19 | 48.34920 | 11.78235 | 1479 ft | 4 kts | 353° |
| 2026-05-08 17:19 | 48.35006 | 11.78220 | 1480 ft | 16 kts | 353° |
| 2026-05-08 17:20 | 48.35123 | 11.78200 | 1480 ft | 18 kts | 353° |
| 2026-05-08 17:20 | 48.35198 | 11.78092 | 1483 ft | 17 kts | 267° |
| 2026-05-08 17:20 | 48.35182 | 11.77905 | 1479 ft | 18 kts | 262° |
| 2026-05-08 17:20 | 48.35117 | 11.77827 | 1480 ft | 11 kts | 179° |
| 2026-05-08 17:21 | 48.35027 | 11.77840 | 1481 ft | 17 kts | 174° |
| 2026-05-08 17:21 | 48.34913 | 11.77858 | 1471 ft | 15 kts | 173° |
| 2026-05-08 17:21 | 48.34824 | 11.77873 | 1475 ft | 12 kts | 174° |
| 2026-05-08 17:21 | 48.34766 | 11.77882 | 1481 ft | 2 kts | 174° |
| 2026-05-08 17:22 | 48.34760 | 11.77883 | 1485 ft | 0 kts | 174° |
| 2026-05-08 17:24 | 48.34712 | 11.77891 | 1481 ft | 14 kts | 174° |
| 2026-05-08 17:24 | 48.34653 | 11.77790 | 1473 ft | 19 kts | 260° |
| 2026-05-08 17:24 | 48.34637 | 11.77573 | 1472 ft | 22 kts | 263° |
| 2026-05-08 17:24 | 48.34620 | 11.77337 | 1475 ft | 23 kts | 264° |
| 2026-05-08 17:25 | 48.34601 | 11.77097 | 1485 ft | 22 kts | 263° |
| 2026-05-08 17:25 | 48.34583 | 11.76861 | 1481 ft | 23 kts | 264° |
| 2026-05-08 17:25 | 48.34564 | 11.76621 | 1473 ft | 23 kts | 263° |
| 2026-05-08 17:25 | 48.34546 | 11.76381 | 1485 ft | 24 kts | 263° |
| 2026-05-08 17:26 | 48.34526 | 11.76131 | 1480 ft | 24 kts | 264° |
| 2026-05-08 17:26 | 48.34508 | 11.75894 | 1473 ft | 22 kts | 263° |
| 2026-05-08 17:26 | 48.34491 | 11.75664 | 1481 ft | 22 kts | 264° |
| 2026-05-08 17:26 | 48.34474 | 11.75452 | 1478 ft | 20 kts | 263° |
| 2026-05-08 17:27 | 48.34449 | 11.75248 | 1475 ft | 19 kts | 232° |
| 2026-05-08 17:27 | 48.34325 | 11.75241 | 1482 ft | 19 kts | 175° |
| 2026-05-08 17:27 | 48.34188 | 11.75260 | 1485 ft | 20 kts | 173° |
| 2026-05-08 17:27 | 48.34089 | 11.75335 | 1475 ft | 16 kts | 97° |
| 2026-05-08 17:28 | 48.34113 | 11.75659 | 1485 ft | 62 kts | 83° |
| 2026-05-08 17:28 | 48.34188 | 11.76652 | 1485 ft | 125 kts | 83° |
| 2026-05-08 17:28 | 48.34313 | 11.78215 | 1489 ft | 173 kts | 84° |
| 2026-05-08 17:28 | 48.34438 | 11.80026 | 2051 ft | 173 kts | 84° |
| 2026-05-08 17:29 | 48.34560 | 11.81824 | 2728 ft | 175 kts | 82° |
| 2026-05-08 17:29 | 48.34703 | 11.83736 | 3093 ft | 195 kts | 82° |
| 2026-05-08 17:29 | 48.34871 | 11.85878 | 3325 ft | 218 kts | 81° |
| 2026-05-08 17:29 | 48.35060 | 11.88269 | 3716 ft | 238 kts | 82° |
| 2026-05-08 17:30 | 48.35255 | 11.90765 | 4462 ft | 243 kts | 82° |
| 2026-05-08 17:30 | 48.35421 | 11.93319 | 5166 ft | 248 kts | 89° |
| 2026-05-08 17:30 | 48.34982 | 11.95821 | 5929 ft | 253 kts | 121° |
| 2026-05-08 17:30 | 48.33754 | 11.97731 | 6700 ft | 257 kts | 141° |
| 2026-05-08 17:31 | 48.32336 | 11.99393 | 7496 ft | 259 kts | 141° |
| 2026-05-08 17:31 | 48.30897 | 12.01042 | 8248 ft | 263 kts | 146° |
| 2026-05-08 17:31 | 48.29244 | 12.02248 | 8988 ft | 266 kts | 163° |
| 2026-05-08 17:31 | 48.27362 | 12.02702 | 9404 ft | 284 kts | 181° |
| 2026-05-08 17:32 | 48.25354 | 12.02562 | 10011 ft | 292 kts | 183° |
| 2026-05-08 17:32 | 48.23307 | 12.02422 | 10698 ft | 297 kts | 183° |
| 2026-05-08 17:32 | 48.21223 | 12.02293 | 11351 ft | 302 kts | 183° |
| 2026-05-08 17:32 | 48.19106 | 12.02168 | 12047 ft | 306 kts | 184° |
| 2026-05-08 17:33 | 48.17002 | 12.02048 | 12787 ft | 306 kts | 185° |
| 2026-05-08 17:33 | 48.14873 | 12.02168 | 13575 ft | 308 kts | 173° |
| 2026-05-08 17:33 | 48.12809 | 12.03021 | 14322 ft | 310 kts | 160° |
| 2026-05-08 17:33 | 48.10821 | 12.04311 | 14975 ft | 313 kts | 159° |
| 2026-05-08 17:34 | 48.08809 | 12.05612 | 15579 ft | 316 kts | 159° |
| 2026-05-08 17:34 | 48.06781 | 12.06917 | 16157 ft | 319 kts | 159° |
| 2026-05-08 17:34 | 48.04727 | 12.08234 | 16737 ft | 322 kts | 159° |
| 2026-05-08 17:34 | 48.02654 | 12.09559 | 17290 ft | 326 kts | 159° |
| 2026-05-08 17:35 | 48.00560 | 12.10896 | 17841 ft | 329 kts | 159° |
| 2026-05-08 17:35 | 47.98435 | 12.12248 | 18381 ft | 332 kts | 160° |
| 2026-05-08 17:35 | 47.96301 | 12.13604 | 18921 ft | 335 kts | 160° |
| 2026-05-08 17:35 | 47.94164 | 12.15018 | 19452 ft | 339 kts | 155° |
| 2026-05-08 17:36 | 47.92816 | 12.16243 | 19768 ft | 345 kts | 147° |
| 2026-05-08 17:36 | 47.90875 | 12.18579 | 19900 ft | 362 kts | 142° |
| 2026-05-08 17:36 | 47.88936 | 12.21025 | 20033 ft | 377 kts | 142° |
| 2026-05-08 17:36 | 47.86899 | 12.23602 | 20156 ft | 392 kts | 142° |
| 2026-05-08 17:37 | 47.84783 | 12.26278 | 20285 ft | 406 kts | 142° |
| 2026-05-08 17:37 | 47.82608 | 12.29024 | 20591 ft | 413 kts | 142° |
| 2026-05-08 17:37 | 47.80392 | 12.31809 | 21028 ft | 417 kts | 142° |
| 2026-05-08 17:37 | 47.78167 | 12.34597 | 21472 ft | 420 kts | 142° |
| 2026-05-08 17:38 | 47.75924 | 12.37400 | 21917 ft | 423 kts | 143° |
| 2026-05-08 17:38 | 47.73664 | 12.40217 | 22352 ft | 425 kts | 143° |
| 2026-05-08 17:38 | 47.71389 | 12.43054 | 22752 ft | 428 kts | 143° |
| 2026-05-08 17:38 | 47.69095 | 12.45904 | 23141 ft | 431 kts | 143° |
| 2026-05-08 17:39 | 47.66789 | 12.48752 | 23533 ft | 433 kts | 143° |
| 2026-05-08 17:39 | 47.64462 | 12.51612 | 23891 ft | 435 kts | 143° |
| 2026-05-08 17:39 | 47.62119 | 12.54465 | 24259 ft | 437 kts | 144° |
| 2026-05-08 17:39 | 47.59717 | 12.57240 | 24628 ft | 438 kts | 146° |
| 2026-05-08 17:40 | 47.57294 | 12.59904 | 24985 ft | 439 kts | 148° |
| 2026-05-08 17:40 | 47.54811 | 12.62556 | 25299 ft | 440 kts | 148° |
| 2026-05-08 17:40 | 47.52308 | 12.65202 | 25656 ft | 442 kts | 148° |
| 2026-05-08 17:40 | 47.49806 | 12.67856 | 25996 ft | 443 kts | 148° |
| 2026-05-08 17:41 | 47.47304 | 12.70535 | 26337 ft | 445 kts | 148° |
| 2026-05-08 17:41 | 47.44804 | 12.73238 | 26655 ft | 446 kts | 148° |
| 2026-05-08 17:41 | 47.42294 | 12.75962 | 26962 ft | 448 kts | 148° |
| 2026-05-08 17:41 | 47.39779 | 12.78692 | 27205 ft | 449 kts | 148° |
| 2026-05-08 17:42 | 47.37262 | 12.81421 | 27484 ft | 450 kts | 148° |
| 2026-05-08 17:42 | 47.34728 | 12.84164 | 27772 ft | 452 kts | 148° |
| 2026-05-08 17:42 | 47.32192 | 12.86904 | 28048 ft | 453 kts | 149° |
| 2026-05-08 17:42 | 47.29643 | 12.89653 | 28307 ft | 453 kts | 149° |
| 2026-05-08 17:43 | 47.27090 | 12.92398 | 28553 ft | 455 kts | 149° |
| 2026-05-08 17:43 | 47.24561 | 12.95108 | 28798 ft | 456 kts | 149° |
| 2026-05-08 17:43 | 47.21992 | 12.97858 | 29020 ft | 457 kts | 149° |
| 2026-05-08 17:43 | 47.19408 | 13.00624 | 29250 ft | 458 kts | 149° |
| 2026-05-08 17:44 | 47.16826 | 13.03390 | 29490 ft | 459 kts | 149° |
| 2026-05-08 17:44 | 47.14253 | 13.06148 | 29766 ft | 457 kts | 149° |
| 2026-05-08 17:44 | 47.11682 | 13.08903 | 30066 ft | 456 kts | 149° |
| 2026-05-08 17:44 | 47.09121 | 13.11646 | 30367 ft | 454 kts | 149° |
| 2026-05-08 17:45 | 47.06569 | 13.14375 | 30637 ft | 453 kts | 149° |
| 2026-05-08 17:45 | 47.04023 | 13.17085 | 30880 ft | 452 kts | 149° |
| 2026-05-08 17:45 | 47.01472 | 13.19796 | 31140 ft | 451 kts | 150° |
| 2026-05-08 17:45 | 46.98928 | 13.22494 | 31431 ft | 450 kts | 150° |
| 2026-05-08 17:46 | 46.96423 | 13.25145 | 31658 ft | 450 kts | 150° |
| 2026-05-08 17:46 | 46.93884 | 13.27829 | 31921 ft | 449 kts | 150° |
| 2026-05-08 17:46 | 46.91357 | 13.30497 | 32213 ft | 448 kts | 150° |
| 2026-05-08 17:46 | 46.88830 | 13.33164 | 32506 ft | 447 kts | 150° |
| 2026-05-08 17:47 | 46.86308 | 13.35822 | 32801 ft | 446 kts | 150° |
| 2026-05-08 17:47 | 46.83795 | 13.38469 | 33086 ft | 445 kts | 150° |
| 2026-05-08 17:47 | 46.81289 | 13.41109 | 33334 ft | 444 kts | 150° |
| 2026-05-08 17:47 | 46.79627 | 13.42856 | 33475 ft | 444 kts | 150° |
| 2026-05-08 17:48 | 46.76275 | 13.46366 | 33765 ft | 441 kts | 150° |
| 2026-05-08 17:48 | 46.73787 | 13.48975 | 34018 ft | 440 kts | 150° |
| 2026-05-08 17:48 | 46.71302 | 13.51579 | 34283 ft | 439 kts | 150° |
| 2026-05-08 17:48 | 46.68813 | 13.54185 | 34481 ft | 440 kts | 150° |
| 2026-05-08 17:49 | 46.66328 | 13.56785 | 34676 ft | 440 kts | 150° |
| 2026-05-08 17:49 | 46.63870 | 13.59356 | 34866 ft | 441 kts | 149° |
| 2026-05-08 17:49 | 46.61378 | 13.61956 | 35015 ft | 441 kts | 150° |
| 2026-05-08 17:49 | 46.58875 | 13.64565 | 35036 ft | 442 kts | 149° |
| 2026-05-08 17:50 | 46.53864 | 13.69776 | 35037 ft | 443 kts | 150° |
| 2026-05-08 17:50 | 46.48878 | 13.75060 | 35027 ft | 444 kts | 148° |
| 2026-05-08 17:51 | 46.44005 | 13.80551 | 35027 ft | 444 kts | 147° |
| 2026-05-08 17:51 | 46.39135 | 13.86080 | 35028 ft | 443 kts | 147° |
| 2026-05-08 17:52 | 46.34282 | 13.91495 | 35025 ft | 443 kts | 148° |
| 2026-05-08 17:53 | 46.26886 | 13.99644 | 35031 ft | 443 kts | 147° |
| 2026-05-08 17:53 | 46.21984 | 14.05051 | 35031 ft | 443 kts | 147° |
| 2026-05-08 17:54 | 46.17084 | 14.10458 | 35033 ft | 443 kts | 147° |
| 2026-05-08 17:54 | 46.12207 | 14.15821 | 35040 ft | 443 kts | 148° |
| 2026-05-08 17:55 | 46.07302 | 14.21199 | 35041 ft | 443 kts | 147° |
| 2026-05-08 17:55 | 46.02394 | 14.26568 | 35039 ft | 443 kts | 148° |
| 2026-05-08 17:56 | 45.97481 | 14.31924 | 35034 ft | 442 kts | 148° |
| 2026-05-08 17:56 | 45.92577 | 14.37260 | 35036 ft | 442 kts | 148° |
| 2026-05-08 17:57 | 45.87661 | 14.42600 | 35030 ft | 442 kts | 148° |
| 2026-05-08 17:57 | 45.82759 | 14.47919 | 35023 ft | 442 kts | 148° |
| 2026-05-08 17:58 | 45.77887 | 14.53190 | 35020 ft | 441 kts | 148° |
| 2026-05-08 17:58 | 45.72987 | 14.58480 | 35015 ft | 441 kts | 148° |
| 2026-05-08 17:59 | 45.68069 | 14.63765 | 35017 ft | 442 kts | 148° |
| 2026-05-08 17:59 | 45.63147 | 14.69043 | 35021 ft | 442 kts | 148° |
| 2026-05-08 18:00 | 45.58217 | 14.74333 | 35026 ft | 443 kts | 148° |
| 2026-05-08 18:00 | 45.50818 | 14.82241 | 35029 ft | 442 kts | 148° |
| 2026-05-08 18:01 | 45.45879 | 14.87497 | 35026 ft | 442 kts | 148° |
| 2026-05-08 18:01 | 45.40994 | 14.92833 | 35020 ft | 443 kts | 147° |
| 2026-05-08 18:02 | 45.36959 | 14.97322 | 35021 ft | 443 kts | 147° |
| 2026-05-08 18:02 | 45.31289 | 15.03597 | 35014 ft | 443 kts | 147° |
| 2026-05-08 18:03 | 45.26407 | 15.08956 | 35020 ft | 444 kts | 147° |
| 2026-05-08 18:03 | 45.21512 | 15.14305 | 35028 ft | 444 kts | 147° |
| 2026-05-08 18:04 | 45.16648 | 15.19616 | 35033 ft | 444 kts | 147° |
| 2026-05-08 18:04 | 45.11755 | 15.24949 | 35029 ft | 444 kts | 147° |
| 2026-05-08 18:05 | 45.06859 | 15.30263 | 35036 ft | 443 kts | 147° |
| 2026-05-08 18:05 | 45.01955 | 15.35575 | 35038 ft | 443 kts | 147° |
| 2026-05-08 18:06 | 44.97053 | 15.40881 | 35039 ft | 443 kts | 147° |
| 2026-05-08 18:06 | 44.92187 | 15.46145 | 35035 ft | 443 kts | 147° |
| 2026-05-08 18:07 | 44.87280 | 15.51430 | 35034 ft | 443 kts | 147° |
| 2026-05-08 18:07 | 44.82366 | 15.56712 | 35032 ft | 443 kts | 147° |
| 2026-05-08 18:08 | 44.77457 | 15.61976 | 35033 ft | 443 kts | 147° |
| 2026-05-08 18:08 | 44.72578 | 15.67201 | 35035 ft | 444 kts | 147° |
| 2026-05-08 18:09 | 44.67669 | 15.72449 | 35037 ft | 444 kts | 147° |
| 2026-05-08 18:09 | 44.62749 | 15.77699 | 35037 ft | 444 kts | 147° |
| 2026-05-08 18:10 | 44.57822 | 15.82924 | 35038 ft | 444 kts | 147° |
| 2026-05-08 18:10 | 44.52885 | 15.88145 | 35039 ft | 444 kts | 147° |
| 2026-05-08 18:11 | 44.47984 | 15.93330 | 35037 ft | 443 kts | 147° |
| 2026-05-08 18:11 | 44.43049 | 15.98541 | 35040 ft | 444 kts | 147° |
| 2026-05-08 18:12 | 44.38123 | 16.03746 | 35040 ft | 444 kts | 146° |
| 2026-05-08 18:12 | 44.33184 | 16.08948 | 35042 ft | 444 kts | 147° |
| 2026-05-08 18:13 | 44.28244 | 16.14135 | 35041 ft | 444 kts | 147° |
| 2026-05-08 18:13 | 44.23295 | 16.19316 | 35040 ft | 444 kts | 146° |
| 2026-05-08 18:14 | 44.18375 | 16.24441 | 35040 ft | 444 kts | 147° |
| 2026-05-08 18:14 | 44.13429 | 16.29597 | 35043 ft | 444 kts | 147° |
| 2026-05-08 18:15 | 44.08475 | 16.34758 | 35041 ft | 444 kts | 147° |
| 2026-05-08 18:15 | 44.03514 | 16.39906 | 35027 ft | 445 kts | 147° |
| 2026-05-08 18:16 | 43.98531 | 16.45068 | 35022 ft | 447 kts | 147° |
| 2026-05-08 18:16 | 43.93532 | 16.50240 | 35008 ft | 449 kts | 147° |
| 2026-05-08 18:17 | 43.88530 | 16.55403 | 35013 ft | 451 kts | 147° |
| 2026-05-08 18:17 | 43.83484 | 16.60593 | 35010 ft | 452 kts | 147° |
| 2026-05-08 18:18 | 43.78419 | 16.65794 | 35010 ft | 453 kts | 147° |
| 2026-05-08 18:18 | 43.73345 | 16.70998 | 35008 ft | 454 kts | 147° |
| 2026-05-08 18:19 | 43.68258 | 16.76196 | 35011 ft | 455 kts | 147° |
| 2026-05-08 18:19 | 43.63191 | 16.81360 | 35008 ft | 456 kts | 147° |
| 2026-05-08 18:20 | 43.58076 | 16.86567 | 35006 ft | 456 kts | 147° |
| 2026-05-08 18:20 | 43.53794 | 16.90922 | 35008 ft | 457 kts | 147° |
| 2026-05-08 18:21 | 43.48697 | 16.96091 | 35006 ft | 458 kts | 147° |
| 2026-05-08 18:21 | 43.43563 | 17.01284 | 35006 ft | 458 kts | 147° |
| 2026-05-08 18:22 | 43.38413 | 17.06486 | 35013 ft | 459 kts | 147° |
| 2026-05-08 18:22 | 43.33264 | 17.11676 | 35004 ft | 459 kts | 147° |
| 2026-05-08 18:23 | 43.28113 | 17.16860 | 35005 ft | 459 kts | 147° |
| 2026-05-08 18:23 | 43.22983 | 17.22009 | 35002 ft | 460 kts | 147° |
| 2026-05-08 18:24 | 43.17808 | 17.27195 | 35000 ft | 460 kts | 147° |
| 2026-05-08 18:24 | 43.12627 | 17.32373 | 35006 ft | 461 kts | 147° |
| 2026-05-08 18:25 | 43.07433 | 17.37545 | 35001 ft | 461 kts | 147° |
| 2026-05-08 18:25 | 43.02239 | 17.42715 | 35002 ft | 461 kts | 147° |
| 2026-05-08 18:26 | 42.97081 | 17.47827 | 35006 ft | 461 kts | 147° |
| 2026-05-08 18:26 | 42.91899 | 17.52996 | 35003 ft | 462 kts | 144° |
| 2026-05-08 18:27 | 42.88116 | 17.58195 | 34999 ft | 467 kts | 133° |
| 2026-05-08 18:27 | 42.83216 | 17.66117 | 35005 ft | 467 kts | 133° |
| 2026-05-08 18:28 | 42.79007 | 17.72876 | 34999 ft | 467 kts | 133° |
| 2026-05-08 18:28 | 42.74797 | 17.79614 | 35009 ft | 467 kts | 133° |
| 2026-05-08 18:29 | 42.70614 | 17.86309 | 35010 ft | 467 kts | 133° |
| 2026-05-08 18:29 | 42.66394 | 17.93048 | 35015 ft | 467 kts | 133° |
| 2026-05-08 18:30 | 42.62166 | 17.99765 | 35014 ft | 467 kts | 133° |
| 2026-05-08 18:30 | 42.57936 | 18.06473 | 35024 ft | 467 kts | 133° |
| 2026-05-08 18:31 | 42.53725 | 18.13156 | 35034 ft | 466 kts | 133° |
| 2026-05-08 18:31 | 42.49507 | 18.19826 | 35033 ft | 465 kts | 133° |
| 2026-05-08 18:32 | 42.45319 | 18.26437 | 35031 ft | 465 kts | 133° |
| 2026-05-08 18:32 | 42.41108 | 18.33068 | 35026 ft | 465 kts | 133° |
| 2026-05-08 18:33 | 42.36884 | 18.39708 | 35025 ft | 465 kts | 133° |
| 2026-05-08 18:33 | 42.32650 | 18.46342 | 35022 ft | 465 kts | 133° |
| 2026-05-08 18:34 | 42.28414 | 18.52958 | 35022 ft | 465 kts | 133° |
| 2026-05-08 18:34 | 42.24179 | 18.59559 | 35016 ft | 465 kts | 133° |
| 2026-05-08 18:35 | 42.19942 | 18.66167 | 35009 ft | 465 kts | 133° |
| 2026-05-08 18:35 | 42.15734 | 18.72716 | 35009 ft | 464 kts | 133° |
| 2026-05-08 18:36 | 42.11498 | 18.79280 | 35012 ft | 464 kts | 133° |
| 2026-05-08 18:36 | 42.07248 | 18.85832 | 35001 ft | 464 kts | 133° |
| 2026-05-08 18:37 | 42.03003 | 18.92375 | 34996 ft | 464 kts | 133° |
| 2026-05-08 18:37 | 41.98758 | 18.98918 | 35004 ft | 464 kts | 133° |
| 2026-05-08 18:38 | 41.94498 | 19.05458 | 34978 ft | 466 kts | 134° |
| 2026-05-08 18:38 | 41.90243 | 19.11987 | 34979 ft | 469 kts | 134° |
| 2026-05-08 18:39 | 41.85906 | 19.18610 | 34980 ft | 470 kts | 134° |
| 2026-05-08 18:39 | 41.81609 | 19.25162 | 34986 ft | 471 kts | 134° |
| 2026-05-08 18:40 | 41.77285 | 19.31719 | 34998 ft | 471 kts | 135° |
| 2026-05-08 18:40 | 41.72706 | 19.37993 | 35006 ft | 470 kts | 139° |
| 2026-05-08 18:41 | 41.67956 | 19.43998 | 35001 ft | 469 kts | 139° |
| 2026-05-08 18:41 | 41.63203 | 19.49991 | 35013 ft | 469 kts | 139° |
| 2026-05-08 18:42 | 41.58508 | 19.56054 | 35010 ft | 469 kts | 138° |
| 2026-05-08 18:42 | 41.53827 | 19.62159 | 35014 ft | 469 kts | 138° |
| 2026-05-08 18:43 | 41.49141 | 19.68233 | 35016 ft | 469 kts | 138° |
| 2026-05-08 18:43 | 41.44437 | 19.74276 | 35021 ft | 470 kts | 139° |
| 2026-05-08 18:44 | 41.39726 | 19.80319 | 35019 ft | 470 kts | 139° |
| 2026-05-08 18:44 | 41.35013 | 19.86372 | 35014 ft | 470 kts | 139° |
| 2026-05-08 18:45 | 41.30323 | 19.92376 | 35011 ft | 471 kts | 139° |
| 2026-05-08 18:45 | 41.25593 | 19.98419 | 35010 ft | 472 kts | 139° |
| 2026-05-08 18:46 | 41.20851 | 20.04453 | 35013 ft | 472 kts | 139° |
| 2026-05-08 18:46 | 41.16099 | 20.10484 | 35013 ft | 473 kts | 139° |
| 2026-05-08 18:47 | 41.11347 | 20.16515 | 35014 ft | 473 kts | 139° |
| 2026-05-08 18:47 | 41.06575 | 20.22563 | 35015 ft | 474 kts | 139° |
| 2026-05-08 18:48 | 41.01785 | 20.28626 | 35021 ft | 476 kts | 139° |
| 2026-05-08 18:48 | 40.97015 | 20.34633 | 35030 ft | 478 kts | 139° |
| 2026-05-08 18:49 | 40.92182 | 20.40698 | 35034 ft | 479 kts | 139° |
| 2026-05-08 18:49 | 40.87336 | 20.46772 | 35040 ft | 480 kts | 139° |
| 2026-05-08 18:50 | 40.82478 | 20.52861 | 35044 ft | 481 kts | 139° |
| 2026-05-08 18:50 | 40.77606 | 20.58953 | 35048 ft | 483 kts | 139° |
| 2026-05-08 18:51 | 40.72717 | 20.65043 | 35044 ft | 483 kts | 140° |
| 2026-05-08 18:51 | 40.67847 | 20.71101 | 35047 ft | 484 kts | 140° |
| 2026-05-08 18:52 | 40.62951 | 20.77184 | 35051 ft | 485 kts | 140° |
| 2026-05-08 18:52 | 40.58042 | 20.83277 | 35057 ft | 485 kts | 140° |
| 2026-05-08 18:53 | 40.53127 | 20.89358 | 35059 ft | 485 kts | 140° |
| 2026-05-08 18:53 | 40.48203 | 20.95433 | 35062 ft | 485 kts | 140° |
| 2026-05-08 18:54 | 40.43208 | 21.01366 | 35064 ft | 484 kts | 142° |
| 2026-05-08 18:54 | 40.38122 | 21.07148 | 35068 ft | 484 kts | 142° |
| 2026-05-08 18:55 | 40.30487 | 21.15823 | 35066 ft | 484 kts | 142° |
| 2026-05-08 18:56 | 40.25421 | 21.21653 | 35068 ft | 484 kts | 141° |
| 2026-05-08 18:56 | 40.20361 | 21.27472 | 35084 ft | 484 kts | 142° |
| 2026-05-08 18:57 | 40.15324 | 21.33229 | 35077 ft | 483 kts | 142° |
| 2026-05-08 18:57 | 40.10247 | 21.39003 | 35077 ft | 483 kts | 142° |
| 2026-05-08 18:58 | 40.05181 | 21.44771 | 35075 ft | 483 kts | 142° |
| 2026-05-08 18:58 | 40.00115 | 21.50530 | 35071 ft | 483 kts | 142° |
| 2026-05-08 18:59 | 39.95031 | 21.56283 | 35069 ft | 484 kts | 142° |
| 2026-05-08 18:59 | 39.89967 | 21.62009 | 35064 ft | 485 kts | 142° |
| 2026-05-08 19:00 | 39.85735 | 21.66788 | 35063 ft | 485 kts | 142° |
| 2026-05-08 19:00 | 39.79773 | 21.73507 | 35076 ft | 485 kts | 142° |
| 2026-05-08 19:01 | 39.74666 | 21.79240 | 35085 ft | 485 kts | 142° |
| 2026-05-08 19:01 | 39.69559 | 21.84963 | 35097 ft | 485 kts | 142° |
| 2026-05-08 19:02 | 39.64448 | 21.90679 | 35095 ft | 485 kts | 142° |
| 2026-05-08 19:02 | 39.60199 | 21.95426 | 35096 ft | 485 kts | 142° |
| 2026-05-08 19:03 | 39.55078 | 22.01121 | 35085 ft | 485 kts | 142° |
| 2026-05-08 19:03 | 39.49959 | 22.06820 | 35096 ft | 484 kts | 142° |
| 2026-05-08 19:04 | 39.44849 | 22.12501 | 35089 ft | 484 kts | 143° |
| 2026-05-08 19:04 | 39.39736 | 22.18171 | 35080 ft | 485 kts | 143° |
| 2026-05-08 19:05 | 39.34607 | 22.23841 | 35083 ft | 484 kts | 143° |
| 2026-05-08 19:05 | 39.29513 | 22.29455 | 35071 ft | 485 kts | 143° |
| 2026-05-08 19:06 | 39.24340 | 22.35154 | 35073 ft | 485 kts | 143° |
| 2026-05-08 19:06 | 39.19245 | 22.40765 | 35065 ft | 485 kts | 143° |
| 2026-05-08 19:07 | 39.14081 | 22.46432 | 35064 ft | 486 kts | 144° |
| 2026-05-08 19:07 | 39.08923 | 22.52067 | 35059 ft | 487 kts | 144° |
| 2026-05-08 19:08 | 39.03749 | 22.57730 | 35066 ft | 487 kts | 144° |
| 2026-05-08 19:08 | 38.98565 | 22.63383 | 35061 ft | 488 kts | 144° |
| 2026-05-08 19:09 | 38.93410 | 22.68990 | 35064 ft | 488 kts | 145° |
| 2026-05-08 19:09 | 38.90665 | 22.71474 | 35061 ft | 478 kts | 158° |
| 2026-05-08 19:09 | 38.87621 | 22.73028 | 35062 ft | 465 kts | 172° |
| 2026-05-08 19:10 | 38.81335 | 22.74916 | 35059 ft | 464 kts | 174° |
| 2026-05-08 19:10 | 38.75025 | 22.76746 | 35063 ft | 465 kts | 174° |
| 2026-05-08 19:11 | 38.68709 | 22.78577 | 35062 ft | 466 kts | 174° |
| 2026-05-08 19:11 | 38.62376 | 22.80421 | 35065 ft | 466 kts | 174° |
| 2026-05-08 19:12 | 38.56048 | 22.82266 | 35065 ft | 467 kts | 174° |
| 2026-05-08 19:12 | 38.49714 | 22.84104 | 35057 ft | 467 kts | 174° |
| 2026-05-08 19:13 | 38.43372 | 22.85945 | 35059 ft | 467 kts | 174° |
| 2026-05-08 19:13 | 38.37026 | 22.87794 | 35057 ft | 468 kts | 174° |
| 2026-05-08 19:14 | 38.30685 | 22.89626 | 35058 ft | 467 kts | 174° |
| 2026-05-08 19:14 | 38.24342 | 22.91450 | 35059 ft | 468 kts | 174° |
| 2026-05-08 19:15 | 38.18023 | 22.93264 | 35065 ft | 468 kts | 174° |
| 2026-05-08 19:15 | 38.11669 | 22.95098 | 35066 ft | 468 kts | 174° |
| 2026-05-08 19:16 | 38.05320 | 22.96928 | 35077 ft | 468 kts | 174° |
| 2026-05-08 19:16 | 37.98972 | 22.98751 | 35080 ft | 468 kts | 175° |
| 2026-05-08 19:17 | 37.92621 | 23.00567 | 35084 ft | 468 kts | 175° |
| 2026-05-08 19:17 | 37.86271 | 23.02372 | 35075 ft | 468 kts | 175° |
| 2026-05-08 19:18 | 37.79919 | 23.04182 | 35075 ft | 468 kts | 175° |
| 2026-05-08 19:18 | 37.73558 | 23.05991 | 35076 ft | 468 kts | 175° |
| 2026-05-08 19:19 | 37.67194 | 23.07801 | 35082 ft | 468 kts | 175° |
| 2026-05-08 19:19 | 37.60827 | 23.09601 | 35072 ft | 469 kts | 175° |
| 2026-05-08 19:20 | 37.54460 | 23.11414 | 35086 ft | 469 kts | 175° |
| 2026-05-08 19:20 | 37.48100 | 23.13223 | 35098 ft | 468 kts | 175° |
| 2026-05-08 19:21 | 37.41781 | 23.15008 | 35100 ft | 468 kts | 175° |
| 2026-05-08 19:21 | 37.35426 | 23.16785 | 35097 ft | 467 kts | 175° |
| 2026-05-08 19:22 | 37.29078 | 23.18560 | 35093 ft | 467 kts | 175° |
| 2026-05-08 19:22 | 37.22731 | 23.20341 | 35085 ft | 467 kts | 175° |
| 2026-05-08 19:23 | 37.16381 | 23.22127 | 35096 ft | 467 kts | 174° |
| 2026-05-08 19:23 | 37.10035 | 23.23917 | 35094 ft | 467 kts | 175° |
| 2026-05-08 19:24 | 37.03690 | 23.25685 | 35089 ft | 467 kts | 175° |
| 2026-05-08 19:24 | 36.97388 | 23.27435 | 35095 ft | 467 kts | 175° |
| 2026-05-08 19:24 | 36.94229 | 23.28313 | 34593 ft | 466 kts | 175° |
| 2026-05-08 19:25 | 36.91036 | 23.29198 | 33553 ft | 472 kts | 174° |
| 2026-05-08 19:25 | 36.87838 | 23.30088 | 32796 ft | 470 kts | 174° |
| 2026-05-08 19:25 | 36.84628 | 23.30982 | 31634 ft | 477 kts | 174° |
| 2026-05-08 19:25 | 36.81348 | 23.31886 | 30307 ft | 486 kts | 174° |
| 2026-05-08 19:26 | 36.78031 | 23.32801 | 29176 ft | 489 kts | 173° |
| 2026-05-08 19:26 | 36.74729 | 23.33719 | 28454 ft | 482 kts | 173° |
| 2026-05-08 19:26 | 36.71473 | 23.34632 | 27718 ft | 477 kts | 173° |
| 2026-05-08 19:26 | 36.68248 | 23.35536 | 27001 ft | 472 kts | 173° |
| 2026-05-08 19:27 | 36.65057 | 23.36426 | 26287 ft | 467 kts | 173° |
| 2026-05-08 19:27 | 36.61895 | 23.37300 | 25590 ft | 463 kts | 173° |
| 2026-05-08 19:27 | 36.58764 | 23.38159 | 24901 ft | 458 kts | 173° |
| 2026-05-08 19:27 | 36.55669 | 23.39007 | 24217 ft | 454 kts | 173° |
| 2026-05-08 19:28 | 36.52597 | 23.39849 | 23553 ft | 450 kts | 173° |
| 2026-05-08 19:28 | 36.49548 | 23.40683 | 22892 ft | 446 kts | 173° |
| 2026-05-08 19:28 | 36.46536 | 23.41508 | 22287 ft | 442 kts | 172° |
| 2026-05-08 19:28 | 36.43537 | 23.42332 | 21684 ft | 437 kts | 172° |
| 2026-05-08 19:29 | 36.40621 | 23.43134 | 21138 ft | 432 kts | 172° |
| 2026-05-08 19:29 | 36.37694 | 23.43940 | 20594 ft | 428 kts | 172° |
| 2026-05-08 19:29 | 36.34800 | 23.44736 | 20074 ft | 423 kts | 172° |
| 2026-05-08 19:29 | 36.31937 | 23.45523 | 19557 ft | 419 kts | 172° |
| 2026-05-08 19:30 | 36.29102 | 23.46301 | 19047 ft | 416 kts | 172° |
| 2026-05-08 19:30 | 36.26293 | 23.47069 | 18556 ft | 411 kts | 172° |
| 2026-05-08 19:30 | 36.23507 | 23.47776 | 18072 ft | 406 kts | 174° |
| 2026-05-08 19:30 | 36.20741 | 23.48377 | 17573 ft | 401 kts | 175° |
| 2026-05-08 19:31 | 36.18037 | 23.48907 | 17081 ft | 397 kts | 175° |
| 2026-05-08 19:31 | 36.15310 | 23.49420 | 16580 ft | 394 kts | 176° |
| 2026-05-08 19:31 | 36.12646 | 23.49926 | 16080 ft | 391 kts | 176° |
| 2026-05-08 19:31 | 36.09961 | 23.50449 | 15573 ft | 388 kts | 175° |
| 2026-05-08 19:32 | 36.07305 | 23.50980 | 15060 ft | 384 kts | 175° |
| 2026-05-08 19:32 | 36.04665 | 23.51519 | 14559 ft | 383 kts | 175° |
| 2026-05-08 19:32 | 36.02042 | 23.52053 | 14036 ft | 380 kts | 176° |
| 2026-05-08 19:32 | 35.99438 | 23.52586 | 13515 ft | 378 kts | 176° |
| 2026-05-08 19:33 | 35.96854 | 23.53117 | 12992 ft | 375 kts | 176° |
| 2026-05-08 19:33 | 35.94287 | 23.53643 | 12467 ft | 373 kts | 176° |
| 2026-05-08 19:33 | 35.91732 | 23.54163 | 11928 ft | 370 kts | 176° |
| 2026-05-08 19:33 | 35.89208 | 23.54676 | 11396 ft | 367 kts | 176° |
| 2026-05-08 19:34 | 35.86690 | 23.55188 | 10840 ft | 364 kts | 175° |
| 2026-05-08 19:34 | 35.84223 | 23.55694 | 10604 ft | 352 kts | 175° |
| 2026-05-08 19:34 | 35.81863 | 23.56180 | 10472 ft | 336 kts | 175° |
| 2026-05-08 19:34 | 35.79640 | 23.56639 | 10305 ft | 312 kts | 175° |
| 2026-05-08 19:35 | 35.77542 | 23.57071 | 9841 ft | 301 kts | 175° |
| 2026-05-08 19:35 | 35.75501 | 23.57481 | 9686 ft | 296 kts | 175° |
| 2026-05-08 19:35 | 35.73461 | 23.57886 | 9560 ft | 296 kts | 175° |
| 2026-05-08 19:35 | 35.71467 | 23.58364 | 9428 ft | 298 kts | 165° |
| 2026-05-08 19:36 | 35.69644 | 23.59676 | 9032 ft | 305 kts | 138° |
| 2026-05-08 19:36 | 35.68500 | 23.61848 | 8580 ft | 311 kts | 110° |
| 2026-05-08 19:36 | 35.68252 | 23.64470 | 8187 ft | 309 kts | 88° |
| 2026-05-08 19:36 | 35.68270 | 23.67118 | 7771 ft | 307 kts | 95° |
| 2026-05-08 19:37 | 35.67931 | 23.69677 | 7404 ft | 301 kts | 108° |
| 2026-05-08 19:37 | 35.67225 | 23.72082 | 6980 ft | 297 kts | 114° |
| 2026-05-08 19:37 | 35.66467 | 23.74424 | 6338 ft | 292 kts | 115° |
| 2026-05-08 19:37 | 35.65714 | 23.76705 | 5848 ft | 285 kts | 115° |
| 2026-05-08 19:38 | 35.64982 | 23.78920 | 5512 ft | 270 kts | 115° |
| 2026-05-08 19:38 | 35.64295 | 23.81004 | 5278 ft | 258 kts | 115° |
| 2026-05-08 19:38 | 35.63622 | 23.83035 | 5147 ft | 253 kts | 115° |
| 2026-05-08 19:38 | 35.62976 | 23.84997 | 5016 ft | 242 kts | 115° |
| 2026-05-08 19:39 | 35.62368 | 23.86865 | 4847 ft | 235 kts | 115° |
| 2026-05-08 19:39 | 35.61768 | 23.88717 | 4575 ft | 231 kts | 115° |
| 2026-05-08 19:39 | 35.61178 | 23.90540 | 4283 ft | 225 kts | 115° |
| 2026-05-08 19:39 | 35.60614 | 23.92280 | 3982 ft | 213 kts | 115° |
| 2026-05-08 19:40 | 35.60085 | 23.93917 | 3750 ft | 199 kts | 115° |
| 2026-05-08 19:40 | 35.59593 | 23.95433 | 3505 ft | 183 kts | 116° |
| 2026-05-08 19:40 | 35.59135 | 23.96843 | 3238 ft | 172 kts | 116° |
| 2026-05-08 19:40 | 35.58701 | 23.98166 | 3004 ft | 162 kts | 116° |
| 2026-05-08 19:41 | 35.58295 | 23.99403 | 2793 ft | 149 kts | 116° |
| 2026-05-08 19:41 | 35.57916 | 24.00546 | 2610 ft | 141 kts | 114° |
| 2026-05-08 19:41 | 35.57543 | 24.01652 | 2420 ft | 139 kts | 114° |
| 2026-05-08 19:41 | 35.57142 | 24.02726 | 2213 ft | 137 kts | 115° |
| 2026-05-08 19:42 | 35.56751 | 24.03793 | 2056 ft | 138 kts | 112° |
| 2026-05-08 19:42 | 35.56408 | 24.04892 | 1890 ft | 138 kts | 108° |
| 2026-05-08 19:42 | 35.56111 | 24.06021 | 1696 ft | 140 kts | 108° |
| 2026-05-08 19:42 | 35.55746 | 24.07132 | 1441 ft | 141 kts | 113° |
| 2026-05-08 19:43 | 35.55347 | 24.08235 | 1254 ft | 142 kts | 110° |
| 2026-05-08 19:43 | 35.54996 | 24.09369 | 1122 ft | 142 kts | 112° |
| 2026-05-08 19:43 | 35.54613 | 24.10497 | 990 ft | 143 kts | 112° |
| 2026-05-08 19:43 | 35.54258 | 24.11633 | 806 ft | 143 kts | 111° |
| 2026-05-08 19:44 | 35.53892 | 24.12764 | 635 ft | 142 kts | 112° |
| 2026-05-08 19:44 | 35.53531 | 24.13872 | 505 ft | 131 kts | 111° |
| 2026-05-08 19:44 | 35.53247 | 24.14740 | 494 ft | 86 kts | 112° |
| 2026-05-08 19:44 | 35.53068 | 24.15284 | 487 ft | 60 kts | 111° |
| 2026-05-08 19:45 | 35.52932 | 24.15710 | 494 ft | 45 kts | 110° |
| 2026-05-08 19:45 | 35.52882 | 24.15879 | 491 ft | 21 kts | 101° |
| 2026-05-08 19:45 | 35.52968 | 24.15969 | 492 ft | 18 kts | 19° |
| 2026-05-08 19:45 | 35.53037 | 24.15944 | 491 ft | 7 kts | 300° |
| 2026-05-08 19:46 | 35.53059 | 24.15890 | 497 ft | 7 kts | 293° |
| 2026-05-08 19:46 | 35.53097 | 24.15775 | 489 ft | 20 kts | 292° |
| 2026-05-08 19:46 | 35.53188 | 24.15489 | 496 ft | 23 kts | 291° |
| 2026-05-08 19:47 | 35.53252 | 24.15290 | 499 ft | 24 kts | 293° |
| 2026-05-08 19:47 | 35.53315 | 24.15103 | 494 ft | 24 kts | 291° |
| 2026-05-08 19:47 | 35.53376 | 24.14919 | 497 ft | 23 kts | 292° |
| 2026-05-08 19:47 | 35.53434 | 24.14736 | 491 ft | 23 kts | 291° |
| 2026-05-08 19:48 | 35.53481 | 24.14589 | 497 ft | 15 kts | 291° |
| 2026-05-08 19:48 | 35.53517 | 24.14472 | 494 ft | 15 kts | 291° |
| 2026-05-08 19:48 | 35.53564 | 24.14361 | 499 ft | 15 kts | 322° |
| 2026-05-08 19:48 | 35.53656 | 24.14375 | 491 ft | 14 kts | 44° |
| 2026-05-08 19:49 | 35.53717 | 24.14426 | 493 ft | 7 kts | 22° |
| 2026-05-08 19:49 | 35.53747 | 24.14442 | 495 ft | 2 kts | 22° |
| 2026-05-08 19:49 | 35.53748 | 24.14443 | 498 ft | 0 kts | 22° |